createdAt,value
2018-02-08T14:08:46.047Z,1.30
2018-02-08T14:11:13.688Z,1.30
2018-02-08T14:13:45.586Z,1.20
2018-02-08T14:16:14.014Z,1.40
2018-02-08T14:18:42.475Z,1.50
2018-02-08T14:21:10.898Z,1.50
2018-02-08T14:23:38.546Z,1.80
2018-02-08T14:26:06.237Z,1.70
2018-02-08T14:28:33.988Z,1.60
2018-02-08T14:31:01.704Z,1.80
2018-02-08T14:33:29.344Z,1.60
2018-02-08T14:35:57.036Z,1.50
2018-02-08T14:38:24.757Z,1.40
2018-02-08T14:40:52.420Z,1.60
2018-02-08T14:43:20.849Z,1.70
2018-02-08T14:45:48.533Z,1.70
2018-02-08T14:48:16.196Z,1.60
2018-02-08T14:50:43.902Z,1.50
2018-02-08T14:53:11.547Z,1.50
2018-02-08T14:55:40.012Z,1.40
2018-02-08T14:58:08.504Z,1.40
2018-02-08T15:00:37.045Z,1.30
2018-02-08T15:03:04.701Z,1.30
2018-02-08T15:05:32.434Z,1.30
2018-02-08T15:08:00.085Z,1.30
2018-02-08T15:10:27.741Z,1.10
2018-02-08T15:12:55.463Z,1.00
2018-02-08T15:15:23.112Z,0.90
2018-02-08T15:17:50.767Z,0.70
2018-02-08T15:20:18.456Z,0.70
2018-02-08T15:22:46.116Z,0.60
2018-02-08T15:25:13.819Z,0.60
2018-02-08T15:27:41.493Z,0.60
2018-02-08T15:30:09.153Z,0.70
2018-02-08T15:32:36.828Z,0.70
2018-02-08T15:35:04.475Z,0.60
2018-02-08T15:37:32.151Z,0.60
2018-02-08T15:40:00.063Z,0.60
2018-02-08T15:42:27.729Z,0.60
2018-02-08T15:44:55.431Z,0.50
2018-02-08T15:47:23.073Z,0.50
2018-02-08T15:49:50.791Z,0.60
2018-02-08T15:52:18.408Z,0.50
2018-02-08T15:54:47.844Z,0.40
2018-02-08T15:57:15.507Z,0.40
2018-02-08T15:59:43.190Z,0.40
2018-02-08T16:02:10.908Z,0.40
2018-02-08T16:04:39.351Z,0.30
2018-02-08T16:07:07.777Z,0.30
2018-02-08T16:09:35.411Z,0.30
2018-02-08T16:12:03.075Z,0.30
2018-02-08T16:14:30.719Z,0.30
2018-02-08T16:16:59.148Z,0.30
2018-02-08T16:19:26.819Z,0.30
2018-02-08T16:21:57.288Z,0.40
2018-02-08T16:24:25.695Z,0.50
2018-02-08T16:26:53.358Z,0.50
2018-02-08T16:29:21.059Z,0.50
2018-02-08T16:31:48.705Z,0.40
2018-02-08T16:34:16.362Z,0.40
2018-02-08T16:36:43.998Z,0.20
2018-02-08T16:39:11.634Z,0.30
2018-02-08T16:41:40.487Z,0.30
2018-02-08T16:44:08.174Z,0.30
2018-02-08T16:46:35.816Z,0.30
2018-02-08T16:49:03.458Z,0.30
2018-02-08T16:51:31.153Z,0.30
2018-02-08T16:53:58.798Z,0.20
2018-02-08T16:56:27.449Z,0.10
2018-02-08T16:58:55.089Z,0.00
2018-02-08T17:01:22.739Z,0.00
2018-02-08T17:03:52.392Z,0.00
2018-02-08T17:06:20.786Z,0.00
2018-02-08T17:08:48.454Z,0.00
2018-02-08T17:11:16.189Z,0.00
2018-02-08T17:13:43.869Z,-0.10
2018-02-08T17:16:11.517Z,-0.10
2018-02-08T17:18:39.178Z,0.00
2018-02-08T17:21:06.829Z,0.10
2018-02-08T17:23:34.569Z,0.10
2018-02-08T17:28:40.207Z,0.20
2018-02-08T17:31:07.909Z,0.10
2018-02-08T17:33:35.627Z,0.10
2018-02-08T17:36:03.268Z,0.00
2018-02-08T17:38:35.373Z,-0.10
2018-02-08T17:41:05.946Z,-0.10
2018-02-08T17:46:13.067Z,-0.10
2018-02-08T17:48:40.806Z,-0.10
2018-02-08T17:51:08.497Z,-0.10
2018-02-08T17:53:37.011Z,0.00
2018-02-08T17:56:06.163Z,0.10
2018-02-08T17:58:34.787Z,0.10
2018-02-08T18:01:03.291Z,0.00
2018-02-08T18:03:30.923Z,0.00
2018-02-08T18:05:58.568Z,0.10
2018-02-08T18:08:26.222Z,0.10
2018-02-08T18:10:53.873Z,0.10
2018-02-08T18:13:21.520Z,0.00
2018-02-08T18:15:49.392Z,0.10
2018-02-08T18:18:17.116Z,0.10
2018-02-08T18:20:46.914Z,0.10
2018-02-08T18:23:14.532Z,0.00
2018-02-08T18:25:42.892Z,0.00
2018-02-08T18:28:10.548Z,0.00
2018-02-08T18:30:38.359Z,-0.10
2018-02-08T18:33:06.025Z,-0.20
2018-02-08T18:35:33.756Z,-0.20
2018-02-08T18:38:01.552Z,-0.20
2018-02-08T18:40:29.215Z,-0.30
2018-02-08T18:42:57.639Z,-0.30
2018-02-08T18:45:25.304Z,-0.30
2018-02-08T18:47:53.019Z,-0.30
2018-02-08T18:50:20.649Z,-0.30
2018-02-08T18:52:48.336Z,-0.30
2018-02-08T18:55:15.979Z,-0.20
2018-02-08T18:57:43.643Z,-0.20
2018-02-08T19:00:11.298Z,-0.30
2018-02-08T19:02:38.996Z,-0.30
2018-02-08T19:05:07.087Z,-0.30
2018-02-08T19:07:34.810Z,-0.30
2018-02-08T19:10:02.540Z,-0.20
2018-02-08T19:12:31.066Z,-0.10
2018-02-08T19:14:58.689Z,-0.10
2018-02-08T19:17:27.219Z,-0.20
2018-02-08T19:19:54.979Z,-0.20
2018-02-08T19:22:23.501Z,-0.20
2018-02-08T19:24:51.228Z,-0.20
2018-02-08T19:27:19.934Z,-0.30
2018-02-08T19:29:48.377Z,-0.30
2018-02-08T19:32:16.077Z,-0.30
2018-02-08T19:34:43.793Z,-0.30
2018-02-08T19:37:11.465Z,-0.20
2018-02-08T19:39:39.112Z,-0.20
2018-02-08T19:42:06.769Z,-0.20
2018-02-08T19:44:35.405Z,-0.10
2018-02-08T19:47:03.769Z,-0.10
2018-02-08T19:49:31.463Z,-0.10
2018-02-08T19:51:59.856Z,-0.10
2018-02-08T19:54:27.521Z,-0.20
2018-02-08T19:56:55.273Z,-0.20
2018-02-08T19:59:29.929Z,-0.10
2018-02-08T20:01:57.596Z,-0.10
2018-02-08T20:04:27.408Z,-0.10
2018-02-08T20:06:55.188Z,-0.10
2018-02-08T20:09:22.929Z,-0.10
2018-02-08T20:11:50.787Z,0.00
2018-02-08T20:14:24.192Z,0.10
2018-02-08T20:16:51.938Z,0.20
2018-02-08T20:19:19.608Z,0.10
2018-02-08T20:21:47.273Z,0.00
2018-02-08T20:24:15.489Z,0.00
2018-02-08T20:26:43.231Z,-0.10
2018-02-08T20:29:11.699Z,-0.20
2018-02-08T20:31:39.361Z,-0.20
2018-02-08T20:34:07.060Z,-0.30
2018-02-08T20:36:34.728Z,-0.30
2018-02-08T20:39:03.469Z,-0.30
2018-02-08T20:41:31.327Z,-0.30
2018-02-08T20:43:59.028Z,-0.30
2018-02-08T20:46:28.220Z,-0.40
2018-02-08T20:48:56.087Z,-0.40
2018-02-08T20:51:24.846Z,-0.40
2018-02-08T20:53:52.565Z,-0.40
2018-02-08T20:56:21.063Z,-0.30
2018-02-08T20:58:48.733Z,-0.40
2018-02-08T21:01:16.487Z,-0.30
2018-02-08T21:03:44.120Z,-0.30
2018-02-08T21:06:11.789Z,-0.20
2018-02-08T21:08:40.266Z,-0.20
2018-02-08T21:11:08.782Z,-0.20
2018-02-08T21:13:36.452Z,-0.20
2018-02-08T21:16:04.089Z,0.00
2018-02-08T21:18:31.750Z,0.10
2018-02-08T21:20:59.408Z,0.10
2018-02-08T21:23:27.932Z,0.00
2018-02-08T21:25:55.579Z,-0.10
2018-02-08T21:28:23.342Z,-0.10
2018-02-08T21:30:51.064Z,-0.10
2018-02-08T21:33:19.942Z,-0.20
2018-02-08T21:35:47.615Z,-0.20
2018-02-08T21:38:15.380Z,-0.10
2018-02-08T21:40:43.048Z,0.00
2018-02-08T21:43:11.512Z,0.00
2018-02-08T21:45:39.955Z,0.00
2018-02-08T21:48:07.628Z,0.00
2018-02-08T21:50:35.301Z,0.10
2018-02-08T21:53:03.014Z,-0.10
2018-02-08T21:55:31.406Z,-0.10
2018-02-08T21:57:59.068Z,-0.10
2018-02-08T22:00:26.751Z,-0.10
2018-02-08T22:02:54.413Z,-0.10
2018-02-08T22:05:22.081Z,-0.20
2018-02-08T22:07:49.773Z,-0.40
2018-02-08T22:10:17.428Z,-0.40
2018-02-08T22:12:45.144Z,-0.40
2018-02-08T22:15:12.796Z,-0.40
2018-02-08T22:17:40.463Z,-0.40
2018-02-08T22:20:08.127Z,-0.30
2018-02-08T22:22:35.891Z,-0.30
2018-02-08T22:25:03.523Z,-0.20
2018-02-08T22:27:31.979Z,-0.20
2018-02-08T22:29:59.641Z,-0.20
2018-02-08T22:32:27.336Z,-0.20
2018-02-08T22:34:54.964Z,-0.20
2018-02-08T22:37:22.660Z,-0.20
2018-02-08T22:39:51.105Z,-0.40
2018-02-08T22:42:18.758Z,-0.30
2018-02-08T22:44:46.421Z,-0.30
2018-02-08T22:47:14.083Z,-0.40
2018-02-08T22:49:41.787Z,-0.40
2018-02-08T22:52:09.450Z,-0.40
2018-02-08T22:54:37.130Z,-0.40
2018-02-08T22:57:04.757Z,-0.30
2018-02-08T22:59:32.496Z,-0.20
2018-02-08T23:02:00.158Z,-0.20
2018-02-08T23:04:27.825Z,-0.20
2018-02-08T23:06:55.449Z,-0.30
2018-02-08T23:09:23.118Z,-0.30
2018-02-08T23:11:50.768Z,-0.40
2018-02-08T23:14:18.447Z,-0.40
2018-02-08T23:16:46.110Z,-0.30
2018-02-08T23:19:13.757Z,-0.20
2018-02-08T23:21:41.400Z,-0.30
2018-02-08T23:24:09.064Z,-0.40
2018-02-08T23:26:36.708Z,-0.40
2018-02-08T23:29:05.100Z,-0.40
2018-02-08T23:31:32.760Z,-0.50
2018-02-08T23:34:00.476Z,-0.30
2018-02-08T23:36:29.606Z,-0.20
2018-02-08T23:38:58.029Z,-0.30
2018-02-08T23:41:26.428Z,-0.30
2018-02-08T23:43:54.080Z,-0.30
2018-02-08T23:46:21.785Z,-0.30
2018-02-08T23:48:50.211Z,-0.40
2018-02-08T23:51:17.851Z,-0.40
2018-02-08T23:53:45.489Z,-0.40
2018-02-08T23:56:13.908Z,-0.40
2018-02-08T23:58:41.561Z,-0.50
